Time;durP1;ratioP1;P1;durP2;ratioP2;P2;SDS_P1;SDS_P2;PMS_P1;PMS_P2;Temp;Humidity;BMP_temperature;BMP_pressure;BME280_temperature;BME280_humidity;BME280_pressure;Samples;Min_cycle;Max_cycle;Signal;HPM_P1;HPM_P2
2023/04/01 06:13:26;;;;;;;2.63;1.37;;;6.20;99.90;;;;;;5111830;27;20552;-75
2023/04/01 06:20:22;;;;;;;1.23;0.93;;;8.90;99.90;;;;;;5132497;27;20265;-75
2023/04/01 06:25:58;;;;;;;4.47;1.33;;;6.30;99.90;;;;;;5132576;27;20276;-76
2023/04/01 06:31:34;;;;;;;1.77;1.30;;;6.40;99.90;;;;;;5132905;27;20267;-76
2023/04/01 06:35:58;;;;;;;1.90;1.00;;;6.30;99.90;;;;;;5132903;27;20273;-76
2023/04/01 06:41:08;;;;;;;1.80;1.40;;;6.40;99.90;;;;;;5132602;27;20279;-76
2023/04/01 06:45:18;;;;;;;1.10;1.00;;;6.70;99.90;;;;;;5132735;27;20285;-76
2023/04/01 06:49:33;;;;;;;1.47;0.83;;;6.80;99.90;;;;;;5174112;27;20281;-76
2023/04/01 06:52:43;;;;;;;1.13;0.73;;;7.20;99.90;;;;;;5111821;27;20578;-74
2023/04/01 06:56:07;;;;;;;1.40;0.90;;;7.20;99.90;;;;;;5071837;28;20525;-73
2023/04/01 07:00:00;;;;;;;1.67;1.03;;;7.30;99.90;;;;;;5132480;27;20619;-76
2023/04/01 07:02:45;;;;;;;1.80;0.70;;;7.20;99.90;;;;;;5131736;28;20176;-75
2023/04/01 07:05:11;;;;;;;1.13;0.83;;;7.20;99.90;;;;;;5132357;28;20190;-75
2023/04/01 07:08:01;;;;;;;2.27;0.90;;;7.40;99.90;;;;;;5173948;27;20274;-75
2023/04/01 07:12:48;;;;;;;1.20;0.97;;;7.50;99.90;;;;;;5132081;27;20279;-75
2023/04/01 07:16:20;;;;;;;3.20;0.97;;;7.60;99.90;;;;;;5132159;27;20270;-75
2023/04/01 07:18:49;;;;;;;1.23;1.00;;;7.60;99.90;;;;;;5132139;28;20255;-75
2023/04/01 07:21:47;;;;;;;1.47;1.00;;;7.80;99.90;;;;;;5131915;28;20523;-75
2023/04/01 07:24:23;;;;;;;1.27;1.17;;;7.70;99.90;;;;;;5123151;28;20214;-75
2023/04/01 07:26:55;;;;;;;0.50;0.50;;;7.60;99.90;;;;;;5132013;27;20298;-75
2023/04/01 07:29:22;;;;;;;1.37;0.70;;;7.70;99.90;;;;;;5132049;27;20152;-75
2023/04/01 07:32:23;;;;;;;0.87;0.60;;;7.50;99.90;;;;;;5130362;28;20167;-75
2023/04/01 07:35:06;;;;;;;0.93;0.70;;;7.40;99.90;;;;;;5096119;28;20223;-76
2023/04/01 07:37:52;;;;;;;0.90;0.90;;;7.40;99.90;;;;;;5131749;27;20171;-75
2023/04/01 07:40:50;;;;;;;0.77;0.70;;;7.40;99.90;;;;;;5123953;28;20191;-75
2023/04/01 07:43:33;;;;;;;0.87;0.50;;;7.50;99.90;;;;;;5131226;27;20168;-75
2023/04/01 07:46:34;;;;;;;1.00;0.60;;;7.60;99.90;;;;;;5131832;27;20610;-75
2023/04/01 07:49:17;;;;;;;2.20;0.80;;;7.60;99.90;;;;;;5131659;28;20173;-75
2023/04/01 07:52:37;;;;;;;3.03;0.80;;;7.90;99.90;;;;;;5131312;27;20187;-75
2023/04/01 07:55:38;;;;;;;2.33;0.77;;;8.40;99.90;;;;;;5088321;28;20623;-75
2023/04/01 07:58:31;;;;;;;1.80;0.50;;;8.30;99.90;;;;;;5117332;27;20186;-76
2023/04/01 08:01:05;;;;;;;1.20;0.70;;;8.00;99.90;;;;;;5131239;27;20169;-75
2023/04/01 08:03:45;;;;;;;0.53;0.53;;;9.20;99.90;;;;;;5131125;27;20193;-75
2023/04/01 08:06:20;;;;;;;1.03;0.50;;;9.90;99.90;;;;;;5131269;27;20165;-75
2023/04/01 08:09:00;;;;;;;0.60;0.60;;;10.00;99.90;;;;;;5131175;27;20208;-75
2023/04/01 08:11:48;;;;;;;0.60;0.60;;;10.40;99.90;;;;;;5129819;28;20174;-75
2023/04/01 08:15:00;;;;;;;0.50;0.43;;;10.00;99.90;;;;;;5130780;27;20217;-75
2023/04/01 08:17:41;;;;;;;0.40;0.40;;;9.10;99.90;;;;;;5107266;27;20265;-75
2023/04/01 08:20:28;;;;;;;0.60;0.60;;;9.10;99.90;;;;;;5130768;27;20224;-75
2023/04/01 08:23:14;;;;;;;0.70;0.60;;;9.00;99.90;;;;;;5130728;27;20516;-75
2023/04/01 08:25:48;;;;;;;0.60;0.60;;;8.90;99.90;;;;;;5126706;27;20664;-75
2023/04/01 08:28:21;;;;;;;0.87;0.53;;;8.80;99.90;;;;;;5115745;28;20179;-75
2023/04/01 08:30:56;;;;;;;0.80;0.60;;;9.30;99.90;;;;;;5115874;28;20552;-76
2023/04/01 08:33:30;;;;;;;0.60;0.60;;;9.70;99.90;;;;;;5116709;28;20175;-75
2023/04/01 08:36:17;;;;;;;0.40;0.40;;;9.60;99.90;;;;;;5115696;28;20206;-75
2023/04/01 08:39:01;;;;;;;1.00;0.50;;;9.30;99.90;;;;;;5117169;28;20181;-76
2023/04/01 08:41:56;;;;;;;1.20;0.43;;;9.20;99.90;;;;;;5116922;28;20167;-75
2023/04/01 08:44:40;;;;;;;0.90;0.60;;;9.90;99.90;;;;;;5116571;28;20191;-75
2023/04/01 08:48:00;;;;;;;0.67;0.67;;;10.20;99.90;;;;;;5116667;28;20695;-75
2023/04/01 08:50:47;;;;;;;2.03;0.57;;;10.90;99.90;;;;;;5073856;28;20185;-75
2023/04/01 08:53:30;;;;;;;0.57;0.50;;;11.30;99.90;;;;;;5073668;28;20678;-75
2023/04/01 08:56:20;;;;;;;0.40;0.40;;;10.10;99.90;;;;;;5109465;28;20219;-75
2023/04/01 08:59:12;;;;;;;0.93;0.50;;;9.80;99.90;;;;;;5116539;28;20195;-76
2023/04/01 09:02:04;;;;;;;0.40;0.40;;;9.90;99.90;;;;;;5094718;28;20194;-75
2023/04/01 09:04:45;;;;;;;0.77;0.40;;;10.30;99.90;;;;;;5116374;28;20194;-75
2023/04/01 09:07:33;;;;;;;0.60;0.40;;;10.10;99.90;;;;;;5116507;28;20167;-76
2023/04/01 09:09:58;;;;;;;0.40;0.40;;;9.80;99.90;;;;;;5116367;28;20174;-75
2023/04/01 09:12:42;;;;;;;0.73;0.40;;;9.50;99.90;;;;;;5114974;28;20172;-75
2023/04/01 09:15:13;;;;;;;0.50;0.47;;;9.60;99.90;;;;;;5115796;28;20204;-75
2023/04/01 09:18:11;;;;;;;1.00;0.50;;;9.60;99.90;;;;;;5116464;28;20171;-75
2023/04/01 09:20:49;;;;;;;0.53;0.50;;;9.60;99.90;;;;;;5116034;28;20174;-75
2023/04/01 09:23:32;;;;;;;1.40;0.40;;;9.70;99.90;;;;;;5115619;28;20178;-75
2023/04/01 09:26:06;;;;;;;0.70;0.43;;;9.60;99.90;;;;;;5116050;28;20201;-75
2023/04/01 09:29:16;;;;;;;0.40;0.40;;;9.40;99.90;;;;;;5115959;28;20168;-75
2023/04/01 09:32:07;;;;;;;0.40;0.40;;;9.50;99.90;;;;;;5115710;27;20520;-75
2023/04/01 09:34:54;;;;;;;0.50;0.40;;;9.70;99.90;;;;;;5115704;28;20206;-76
2023/04/01 09:37:30;;;;;;;0.50;0.50;;;9.60;99.90;;;;;;5113753;28;20198;-75
2023/04/01 09:40:14;;;;;;;0.40;0.40;;;9.60;99.90;;;;;;5115802;28;20202;-76
2023/04/01 09:42:43;;;;;;;0.90;0.40;;;9.60;99.90;;;;;;5114085;28;20186;-75
2023/04/01 09:45:29;;;;;;;0.50;0.50;;;9.50;99.90;;;;;;5114167;28;20230;-75
2023/04/01 09:48:14;;;;;;;0.57;0.50;;;9.40;99.90;;;;;;5114280;28;20189;-75
2023/04/01 09:51:05;;;;;;;0.83;0.50;;;9.40;99.90;;;;;;5115467;28;20173;-75
2023/04/01 09:53:47;;;;;;;0.50;0.50;;;9.40;99.90;;;;;;5115056;28;20188;-76
2023/04/01 09:56:27;;;;;;;0.70;0.50;;;9.30;99.90;;;;;;5115297;28;20183;-76
2023/04/01 09:59:20;;;;;;;2.10;0.70;;;9.20;99.90;;;;;;5115278;28;20171;-75
2023/04/01 10:02:04;;;;;;;0.50;0.50;;;9.60;99.90;;;;;;5113653;28;20625;-75
2023/04/01 10:04:54;;;;;;;1.67;0.60;;;9.50;99.90;;;;;;5115333;28;20282;-75
2023/04/01 10:07:38;;;;;;;0.93;0.70;;;9.80;99.90;;;;;;5115100;28;20172;-76
2023/04/01 10:10:28;;;;;;;0.40;0.40;;;9.60;99.90;;;;;;5114687;28;20175;-75
2023/04/01 10:13:30;;;;;;;0.60;0.60;;;9.40;99.90;;;;;;5114516;28;20175;-75
2023/04/01 10:16:20;;;;;;;0.40;0.40;;;9.50;99.90;;;;;;5114631;28;20261;-75
2023/04/01 10:19:24;;;;;;;0.70;0.70;;;9.20;99.90;;;;;;5114929;28;20168;-75
2023/04/01 10:22:17;;;;;;;0.60;0.60;;;9.10;99.90;;;;;;5071811;28;20203;-75
2023/04/01 10:25:24;;;;;;;0.50;0.50;;;8.80;99.90;;;;;;5071662;28;20732;-76
2023/04/01 10:28:12;;;;;;;0.40;0.40;;;8.80;99.90;;;;;;5097227;28;20645;-75
2023/04/01 10:30:56;;;;;;;0.40;0.40;;;8.80;99.90;;;;;;5113049;28;20606;-75
2023/04/01 10:33:46;;;;;;;0.40;0.40;;;8.50;99.90;;;;;;5114100;28;20258;-75
2023/04/01 10:36:33;;;;;;;10.70;3.43;;;8.00;99.90;;;;;;5114106;28;20183;-75
2023/04/01 10:39:00;;;;;;;1.33;0.80;;;;;;;;;;5114088;28;20177;-75
2023/04/01 10:42:03;;;;;;;0.57;0.50;;;8.40;99.90;;;;;;5114316;28;20167;-75
2023/04/01 10:44:53;;;;;;;1.10;1.00;;;8.30;99.90;;;;;;5114154;28;20224;-75
2023/04/01 10:47:40;;;;;;;1.17;1.07;;;8.20;99.90;;;;;;5112733;28;20239;-75
2023/04/01 10:50:31;;;;;;;0.40;0.40;;;8.10;99.90;;;;;;5113866;28;20171;-75
2023/04/01 10:53:03;;;;;;;0.50;0.50;;;7.90;99.90;;;;;;5113977;28;20160;-75
2023/04/01 10:55:52;;;;;;;0.70;0.60;;;7.70;99.90;;;;;;5114006;28;20687;-76
2023/04/01 10:58:40;;;;;;;1.13;1.00;;;7.50;99.90;;;;;;5114048;28;20500;-75
2023/04/01 11:01:09;;;;;;;0.60;0.60;;;;;;;;;;5112790;28;20642;-75
2023/04/01 11:04:12;;;;;;;3.70;2.60;;;7.40;99.90;;;;;;5113460;28;20197;-75
2023/04/01 11:06:50;;;;;;;8.13;5.03;;;;;;;;;;5113836;28;20259;-75
2023/04/01 11:10:04;;;;;;;6.43;2.80;;;7.00;99.90;;;;;;5113875;28;20230;-75
2023/04/01 11:12:54;;;;;;;10.67;6.07;;;7.10;99.90;;;;;;5112307;28;20177;-75
2023/04/01 11:15:54;;;;;;;13.37;6.40;;;6.70;99.90;;;;;;5112182;28;20276;-75
2023/04/01 11:18:22;;;;;;;3.53;2.50;;;6.70;99.90;;;;;;5113838;28;20198;-75
2023/04/01 11:20:51;;;;;;;3.27;2.97;;;6.60;99.90;;;;;;5113744;28;20175;-76
2023/04/01 11:23:38;;;;;;;5.73;3.77;;;6.60;99.90;;;;;;5113354;28;20168;-76
2023/04/01 11:26:27;;;;;;;1.20;1.10;;;6.60;99.90;;;;;;5113617;28;20672;-76
2023/04/01 11:29:28;;;;;;;0.80;0.80;;;6.60;99.90;;;;;;5113864;28;20182;-78
2023/04/01 11:32:20;;;;;;;4.47;1.70;;;6.50;99.90;;;;;;5078427;28;20661;-76
2023/04/01 11:35:21;;;;;;;1.60;1.50;;;6.50;99.90;;;;;;5113504;28;20220;-77
2023/04/01 11:38:07;;;;;;;1.43;0.80;;;6.50;99.90;;;;;;5112908;28;20204;-76
2023/04/01 11:40:49;;;;;;;0.80;0.80;;;6.60;99.90;;;;;;5113566;28;20672;-76
2023/04/01 11:43:39;;;;;;;0.80;0.80;;;6.60;99.90;;;;;;5112191;28;20220;-77
2023/04/01 11:46:33;;;;;;;1.07;0.63;;;6.60;99.90;;;;;;5112500;28;20179;-76
2023/04/01 11:49:05;;;;;;;0.97;0.87;;;6.60;99.90;;;;;;5113831;28;20173;-76
2023/04/01 11:52:13;;;;;;;0.80;0.77;;;6.70;99.90;;;;;;5113884;28;20217;-77
2023/04/01 11:54:54;;;;;;;0.60;0.60;;;6.80;99.90;;;;;;5113747;28;20218;-76
2023/04/01 11:57:42;;;;;;;1.13;1.03;;;6.80;99.90;;;;;;5113875;28;20172;-76
2023/04/01 12:00:16;;;;;;;2.33;1.37;;;6.90;99.90;;;;;;5113838;28;20173;-76
2023/04/01 12:03:19;;;;;;;1.40;1.30;;;6.90;99.90;;;;;;5117267;28;20191;-77
2023/04/01 12:06:31;;;;;;;0.83;0.83;;;7.00;99.90;;;;;;5117608;28;20258;-77
2023/04/01 12:09:24;;;;;;;0.90;0.90;;;7.00;99.90;;;;;;5078292;28;20190;-77
2023/04/01 12:12:14;;;;;;;0.83;0.60;;;7.10;99.90;;;;;;5117770;28;20523;-76
2023/04/01 12:14:55;;;;;;;0.80;0.80;;;7.30;99.90;;;;;;5115740;28;20239;-76
2023/04/01 12:17:58;;;;;;;1.03;0.87;;;7.30;99.90;;;;;;5117341;28;20166;-76
2023/04/01 12:20:33;;;;;;;2.70;1.00;;;7.30;99.90;;;;;;5117303;28;20178;-76
2023/04/01 12:23:34;;;;;;;1.43;1.00;;;7.60;99.90;;;;;;5116959;28;20167;-76
2023/04/01 12:26:41;;;;;;;1.00;1.00;;;7.50;99.90;;;;;;5100882;28;20678;-76
2023/04/01 12:29:26;;;;;;;0.77;0.77;;;7.60;99.90;;;;;;5111045;28;20183;-76
2023/04/01 12:32:21;;;;;;;1.37;1.27;;;7.80;99.90;;;;;;5117027;28;20201;-76
2023/04/01 12:34:57;;;;;;;1.00;1.00;;;7.70;99.90;;;;;;5115506;28;20207;-75
2023/04/01 12:37:46;;;;;;;0.60;0.60;;;7.90;99.90;;;;;;5116791;28;20150;-76
2023/04/01 12:40:26;;;;;;;0.70;0.70;;;7.60;99.90;;;;;;5116750;28;20200;-76
2023/04/01 12:43:25;;;;;;;0.97;0.70;;;7.50;99.90;;;;;;5116719;28;20508;-76
2023/04/01 12:45:51;;;;;;;0.43;0.43;;;7.60;99.90;;;;;;5116798;28;20228;-76
2023/04/01 12:48:37;;;;;;;0.50;0.50;;;7.40;99.90;;;;;;5116609;28;20570;-76
2023/04/01 12:51:21;;;;;;;0.70;0.63;;;7.50;99.90;;;;;;5116753;28;20176;-77
2023/04/01 12:54:05;;;;;;;0.60;0.60;;;7.50;99.90;;;;;;5116487;28;20200;-77
2023/04/01 12:56:58;;;;;;;1.27;1.00;;;7.60;99.90;;;;;;5116774;28;20217;-76
2023/04/01 12:59:38;;;;;;;0.63;0.63;;;7.70;99.90;;;;;;5116479;28;20172;-76
2023/04/01 13:02:08;;;;;;;0.40;0.40;;;7.50;99.90;;;;;;5116299;28;20698;-76
2023/04/01 13:04:55;;;;;;;0.80;0.80;;;7.50;99.90;;;;;;5116239;28;20283;-76
2023/04/01 13:07:39;;;;;;;1.00;0.60;;;7.30;99.90;;;;;;5116288;28;20245;-76
2023/04/01 13:10:20;;;;;;;1.07;0.70;;;7.60;99.90;;;;;;5116290;28;20211;-76
2023/04/01 13:13:23;;;;;;;2.00;0.70;;;7.30;99.90;;;;;;5115864;28;20711;-76
2023/04/01 13:16:22;;;;;;;1.17;0.83;;;7.20;99.90;;;;;;5115913;28;20272;-77
2023/04/01 13:18:51;;;;;;;1.30;1.20;;;7.30;99.90;;;;;;5116360;28;20172;-76
2023/04/01 13:21:44;;;;;;;1.20;1.10;;;7.30;99.90;;;;;;5114786;28;20177;-76
2023/04/01 13:24:44;;;;;;;3.20;2.50;;;7.50;99.90;;;;;;5115906;28;20192;-76
2023/04/01 13:27:25;;;;;;;7.40;3.33;;;7.50;99.90;;;;;;5106400;28;20184;-76
2023/04/01 13:30:16;;;;;;;2.10;1.90;;;7.50;99.90;;;;;;5115735;28;20170;-76
2023/04/01 13:32:46;;;;;;;1.63;1.40;;;7.60;99.90;;;;;;5115517;28;20165;-76
2023/04/01 13:35:36;;;;;;;0.70;0.70;;;7.70;99.90;;;;;;5116028;27;20548;-76
2023/04/01 13:38:32;;;;;;;0.70;0.70;;;7.50;99.90;;;;;;5115992;28;20177;-76
2023/04/01 13:41:00;;;;;;;1.03;1.00;;;7.30;99.90;;;;;;5115657;28;20208;-76
2023/04/01 13:43:52;;;;;;;2.37;1.40;;;7.50;99.90;;;;;;5115501;28;20167;-76
2023/04/01 13:46:35;;;;;;;1.50;1.20;;;7.30;99.90;;;;;;5110463;28;20533;-76
2023/04/01 13:49:10;;;;;;;0.57;0.57;;;7.70;99.90;;;;;;5115837;28;20183;-76
2023/04/01 13:51:57;;;;;;;0.60;0.60;;;7.60;99.90;;;;;;5115456;28;20651;-76
2023/04/01 13:54:49;;;;;;;0.93;0.70;;;7.70;99.90;;;;;;5115306;28;20680;-76
2023/04/01 13:57:42;;;;;;;0.60;0.60;;;7.60;99.90;;;;;;5115322;28;20161;-77
2023/04/01 14:00:17;;;;;;;0.90;0.60;;;7.50;99.90;;;;;;5115389;28;20164;-77
2023/04/01 14:03:20;;;;;;;0.50;0.50;;;7.80;99.90;;;;;;5115045;28;20581;-76
2023/04/01 14:06:11;;;;;;;3.80;0.70;;;7.70;99.90;;;;;;5079838;28;20230;-76
2023/04/01 14:09:16;;;;;;;0.50;0.50;;;7.80;99.90;;;;;;5115081;28;20571;-76
2023/04/01 14:12:04;;;;;;;0.60;0.60;;;7.50;99.90;;;;;;5115002;28;20250;-76
2023/04/01 14:15:00;;;;;;;0.57;0.57;;;7.70;99.90;;;;;;5114798;28;20260;-76
2023/04/01 14:17:44;;;;;;;0.57;0.50;;;7.80;99.90;;;;;;5096950;28;20185;-76
2023/04/01 14:20:27;;;;;;;0.60;0.50;;;8.20;99.90;;;;;;5115069;28;20247;-76
2023/04/01 14:23:33;;;;;;;0.47;0.47;;;8.10;99.90;;;;;;5114713;28;20199;-76
2023/04/01 14:26:04;;;;;;;0.70;0.50;;;8.20;99.90;;;;;;5114880;28;20325;-76
2023/04/01 14:28:54;;;;;;;0.50;0.50;;;8.40;99.90;;;;;;5114689;28;20550;-76
2023/04/01 14:31:25;;;;;;;0.87;0.70;;;8.30;99.90;;;;;;5114938;28;20177;-76
2023/04/01 14:34:03;;;;;;;1.23;0.50;;;8.50;99.90;;;;;;5114166;28;20253;-76
2023/04/01 14:37:15;;;;;;;0.73;0.60;;;8.30;99.90;;;;;;5114503;28;20217;-76
2023/04/01 14:40:09;;;;;;;0.70;0.70;;;8.60;99.90;;;;;;5110147;28;20185;-76
2023/04/01 14:43:07;;;;;;;1.43;0.80;;;8.60;99.90;;;;;;5114398;28;20193;-76
2023/04/01 14:46:08;;;;;;;0.50;0.50;;;8.80;99.90;;;;;;5114371;28;20194;-76
2023/04/01 14:48:39;;;;;;;0.57;0.50;;;9.00;99.90;;;;;;5112260;28;20668;-76
2023/04/01 14:51:16;;;;;;;0.50;0.50;;;9.10;99.90;;;;;;5114368;28;20190;-76
2023/04/01 14:53:53;;;;;;;1.10;0.50;;;9.50;99.90;;;;;;5114183;28;20232;-76
2023/04/01 14:56:41;;;;;;;0.77;0.70;;;9.40;99.90;;;;;;5114423;28;20258;-77
2023/04/01 14:59:21;;;;;;;0.63;0.60;;;9.30;99.90;;;;;;5114259;28;20174;-76
2023/04/01 15:02:18;;;;;;;1.00;0.60;;;9.20;99.90;;;;;;5113922;28;20171;-76
2023/04/01 15:05:11;;;;;;;2.10;0.50;;;8.80;99.90;;;;;;5114130;28;20263;-76
2023/04/01 15:08:01;;;;;;;0.90;0.70;;;8.70;99.90;;;;;;5114495;28;20174;-76
2023/04/01 15:10:53;;;;;;;1.90;0.80;;;8.60;99.90;;;;;;5114173;28;20202;-77
2023/04/01 15:13:37;;;;;;;1.90;0.80;;;8.60;99.90;;;;;;5112773;28;20637;-76
2023/04/01 15:16:22;;;;;;;0.90;0.67;;;8.40;99.90;;;;;;5114028;28;20207;-76
2023/04/01 15:18:59;;;;;;;0.50;0.50;;;8.40;99.90;;;;;;5113896;28;20198;-77
2023/04/01 15:21:31;;;;;;;2.43;0.80;;;8.40;99.90;;;;;;5114013;28;20530;-77
2023/04/01 15:24:06;;;;;;;1.90;1.27;;;8.50;99.90;;;;;;5113811;28;20195;-77
2023/04/01 15:26:39;;;;;;;4.40;0.80;;;8.50;99.90;;;;;;5113879;28;20163;-76
2023/04/01 15:29:33;;;;;;;2.50;0.53;;;8.30;99.90;;;;;;5112658;28;20266;-76
2023/04/01 15:32:01;;;;;;;1.03;0.60;;;8.00;99.90;;;;;;5113749;28;20605;-77
2023/04/01 15:34:43;;;;;;;1.70;0.90;;;8.00;99.90;;;;;;5113617;28;20570;-76
2023/04/01 15:37:21;;;;;;;0.70;0.60;;;7.80;99.90;;;;;;5116861;28;20176;-75
2023/04/01 15:40:11;;;;;;;2.20;0.70;;;7.80;99.90;;;;;;5118243;28;20175;-76
2023/04/01 15:42:58;;;;;;;1.00;0.53;;;7.70;99.90;;;;;;5116583;28;20167;-76
2023/04/01 15:45:24;;;;;;;2.90;1.10;;;7.40;99.90;;;;;;5117766;28;20197;-76
2023/04/01 15:47:58;;;;;;;0.63;0.60;;;7.60;99.90;;;;;;5117970;28;20180;-76
2023/04/01 15:50:41;;;;;;;3.77;2.77;;;7.70;99.90;;;;;;5116844;28;20540;-76
2023/04/01 15:53:47;;;;;;;1.30;1.20;;;7.60;99.90;;;;;;5117489;28;20196;-76
2023/04/01 15:56:27;;;;;;;5.13;4.10;;;7.80;99.90;;;;;;5117561;28;20199;-76
2023/04/01 15:58:53;;;;;;;1.20;1.10;;;7.80;99.90;;;;;;5117905;28;20653;-76
2023/04/01 16:01:44;;;;;;;0.87;0.70;;;7.70;99.90;;;;;;5117725;28;20172;-76
2023/04/01 16:04:43;;;;;;;1.27;1.00;;;7.70;99.90;;;;;;5117379;28;20279;-76
2023/04/01 16:07:39;;;;;;;0.70;0.70;;;7.70;99.90;;;;;;5116575;28;20577;-76
2023/04/01 16:10:30;;;;;;;0.97;0.70;;;7.60;99.90;;;;;;5117474;28;20165;-76
2023/04/01 16:13:23;;;;;;;2.27;1.40;;;7.80;99.90;;;;;;5117169;28;20713;-76
2023/04/01 16:16:05;;;;;;;1.40;0.80;;;8.00;99.90;;;;;;5117355;28;20204;-75
2023/04/01 16:18:33;;;;;;;1.50;0.90;;;7.80;99.90;;;;;;5117446;28;20197;-75
2023/04/01 16:21:05;;;;;;;1.40;1.27;;;7.90;99.90;;;;;;5117245;28;20168;-75
2023/04/01 16:23:50;;;;;;;2.70;0.70;;;7.50;99.90;;;;;;5116936;28;20510;-76
2023/04/01 16:41:02;;;;;;;2.10;1.00;;;7.80;99.90;;;;;;5071048;28;20580;-74
